createdAt,value
2022-11-04T00:02:17.314Z,0.90
2022-11-04T00:04:46.846Z,0.68
2022-11-04T00:07:28.515Z,0.75
2022-11-04T00:09:57.128Z,1.02
2022-11-04T00:12:27.039Z,0.70
2022-11-04T00:15:15.261Z,0.80
2022-11-04T00:17:42.140Z,0.57
2022-11-04T00:20:30.081Z,0.57
2022-11-04T00:23:30.389Z,0.75
2022-11-04T00:26:17.228Z,0.75
2022-11-04T00:28:45.333Z,0.80
2022-11-04T00:31:34.217Z,0.82
2022-11-04T00:34:02.137Z,0.50
2022-11-04T00:36:31.220Z,0.63
2022-11-04T00:38:59.487Z,0.65
2022-11-04T00:41:27.822Z,0.60
2022-11-04T00:43:57.498Z,0.82
2022-11-04T00:46:25.742Z,0.65
2022-11-04T00:48:56.711Z,0.50
2022-11-04T00:51:25.280Z,0.82
2022-11-04T00:53:54.812Z,0.60
2022-11-04T00:56:23.055Z,0.65
2022-11-04T00:58:51.086Z,0.75
2022-11-04T01:01:19.756Z,1.08
2022-11-04T01:03:49.177Z,0.70
2022-11-04T01:06:27.825Z,0.70
2022-11-04T01:09:01.780Z,0.90
2022-11-04T01:11:31.352Z,0.80
2022-11-04T01:13:59.444Z,0.63
2022-11-04T01:19:01.089Z,0.82
2022-11-04T01:21:29.365Z,1.00
2022-11-04T01:23:57.661Z,0.77
2022-11-04T01:26:30.131Z,1.02
2022-11-04T01:28:58.918Z,0.88
2022-11-04T01:31:28.542Z,0.85
2022-11-04T01:34:07.759Z,0.70
2022-11-04T01:36:52.171Z,1.00
2022-11-04T01:39:19.976Z,0.75
2022-11-04T01:42:07.696Z,0.68
2022-11-04T01:45:02.538Z,0.80
2022-11-04T01:50:05.984Z,0.75
2022-11-04T01:52:37.966Z,0.88
2022-11-04T01:55:14.596Z,0.60
2022-11-04T01:57:48.045Z,0.98
2022-11-04T02:00:17.246Z,1.10
2022-11-04T02:03:04.404Z,0.80
2022-11-04T02:05:32.333Z,0.80
2022-11-04T02:08:02.694Z,0.80
2022-11-04T02:10:37.585Z,0.70
2022-11-04T02:13:13.545Z,0.63
2022-11-04T02:15:53.554Z,0.40
2022-11-04T02:18:37.417Z,0.60
2022-11-04T02:21:36.788Z,0.60
2022-11-04T02:24:32.873Z,0.40
2022-11-04T02:27:28.329Z,0.60
2022-11-04T02:30:17.021Z,0.68
2022-11-04T02:33:09.880Z,0.55
2022-11-04T02:35:48.721Z,0.77
2022-11-04T02:38:31.670Z,0.60
2022-11-04T02:41:05.566Z,0.57
2022-11-04T02:44:03.487Z,0.65
2022-11-04T02:46:38.986Z,0.57
2022-11-04T02:49:13.246Z,0.43
2022-11-04T02:51:49.313Z,0.90
2022-11-04T02:54:23.310Z,0.70
2022-11-04T02:56:54.218Z,0.70
2022-11-04T02:59:36.293Z,0.73
2022-11-04T03:02:10.191Z,0.77
2022-11-04T03:04:44.916Z,0.60
2022-11-04T03:07:16.300Z,0.77
2022-11-04T03:09:50.590Z,0.70
2022-11-04T03:14:53.790Z,0.73
2022-11-04T03:17:34.993Z,0.40
2022-11-04T03:20:06.887Z,0.60
2022-11-04T03:22:36.957Z,0.60
2022-11-04T03:25:06.473Z,0.80
2022-11-04T03:27:40.144Z,0.50
2022-11-04T03:30:13.264Z,0.55
2022-11-04T03:32:52.722Z,0.50
2022-11-04T03:35:21.194Z,0.43
2022-11-04T03:37:58.031Z,0.35
2022-11-04T03:40:27.389Z,0.50
2022-11-04T03:43:06.914Z,0.47
2022-11-04T03:45:34.956Z,0.35
2022-11-04T03:48:07.831Z,0.20
2022-11-04T03:50:42.509Z,0.20
2022-11-04T03:53:13.311Z,0.30
2022-11-04T03:56:08.245Z,0.20
2022-11-04T03:58:59.634Z,0.20
2022-11-04T04:01:37.053Z,0.30
2022-11-04T04:04:14.297Z,0.45
2022-11-04T04:06:44.442Z,0.40
2022-11-04T04:09:19.025Z,0.30
2022-11-04T04:11:57.077Z,0.50
2022-11-04T04:14:48.469Z,0.70
2022-11-04T04:17:20.797Z,0.90
2022-11-04T04:19:55.131Z,1.08
2022-11-04T04:22:26.132Z,0.98
2022-11-04T04:25:15.247Z,0.98
2022-11-04T04:27:45.148Z,0.93
2022-11-04T04:30:15.488Z,1.33
2022-11-04T04:32:46.022Z,1.00
2022-11-04T04:35:38.241Z,0.80
2022-11-04T04:38:27.318Z,0.65
2022-11-04T04:41:18.936Z,0.57
2022-11-04T04:44:03.961Z,0.90
2022-11-04T04:46:33.235Z,1.17
2022-11-04T04:49:06.154Z,0.60
2022-11-04T04:51:40.274Z,1.23
2022-11-04T04:54:08.372Z,1.02
2022-11-04T04:56:36.211Z,0.82
2022-11-04T04:59:04.512Z,0.90
2022-11-04T05:01:32.550Z,1.02
2022-11-04T05:04:00.428Z,0.98
2022-11-04T05:06:30.516Z,1.08
2022-11-04T05:08:59.806Z,0.80
2022-11-04T05:11:30.510Z,1.00
2022-11-04T05:13:58.337Z,0.80
2022-11-04T05:16:26.358Z,0.80
2022-11-04T05:18:55.122Z,1.15
2022-11-04T05:21:23.082Z,0.90
2022-11-04T05:23:50.920Z,0.75
2022-11-04T05:26:20.774Z,0.93
2022-11-04T05:28:48.715Z,0.90
2022-11-04T05:31:18.530Z,0.70
2022-11-04T05:33:46.477Z,0.93
2022-11-04T05:36:16.018Z,1.02
2022-11-04T05:38:44.842Z,1.10
2022-11-04T05:41:25.665Z,1.08
2022-11-04T05:43:55.823Z,1.00
2022-11-04T05:46:24.135Z,1.13
2022-11-04T05:48:52.492Z,2.10
2022-11-04T05:51:22.365Z,1.30
2022-11-04T05:53:50.263Z,1.42
2022-11-04T05:56:21.360Z,1.65
2022-11-04T05:58:50.576Z,1.52
2022-11-04T06:01:28.785Z,1.40
2022-11-04T06:03:57.298Z,1.50
2022-11-04T06:06:27.488Z,1.30
2022-11-04T06:09:20.866Z,1.73
2022-11-04T06:11:48.740Z,1.65
2022-11-04T06:14:18.860Z,1.30
2022-11-04T06:16:48.414Z,1.10
2022-11-04T06:19:16.490Z,1.35
2022-11-04T06:21:44.545Z,1.52
2022-11-04T06:24:12.820Z,1.55
2022-11-04T06:26:41.201Z,2.40
2022-11-04T06:29:09.946Z,1.95
2022-11-04T06:31:37.723Z,1.85
2022-11-04T06:34:07.002Z,1.30
2022-11-04T06:36:34.999Z,1.50
2022-11-04T06:39:04.955Z,1.00
2022-11-04T06:41:33.259Z,1.90
2022-11-04T06:44:03.006Z,1.42
2022-11-04T06:46:34.949Z,1.63
2022-11-04T06:49:02.925Z,1.45
2022-11-04T06:51:32.437Z,1.52
2022-11-04T06:54:00.216Z,1.00
2022-11-04T06:56:28.292Z,1.00
2022-11-04T06:58:56.873Z,1.25
2022-11-04T07:01:26.964Z,1.27
2022-11-04T07:04:02.047Z,1.33
2022-11-04T07:06:31.328Z,1.20
2022-11-04T07:09:02.636Z,1.20
2022-11-04T07:11:33.259Z,1.23
2022-11-04T07:14:01.170Z,1.17
2022-11-04T07:16:28.971Z,1.15
2022-11-04T07:18:56.999Z,1.30
2022-11-04T07:21:24.893Z,1.10
2022-11-04T07:23:52.907Z,1.08
2022-11-04T07:26:22.090Z,1.50
2022-11-04T07:28:50.184Z,1.05
2022-11-04T07:31:19.545Z,1.27
2022-11-04T07:33:50.145Z,1.17
2022-11-04T07:36:19.017Z,0.90
2022-11-04T07:38:49.934Z,1.65
2022-11-04T07:41:18.566Z,1.45
2022-11-04T07:43:51.443Z,1.13
2022-11-04T07:46:21.895Z,1.08
2022-11-04T07:48:49.719Z,1.33
2022-11-04T07:51:20.949Z,1.30
2022-11-04T07:53:48.801Z,0.90
2022-11-04T07:56:16.689Z,1.00
2022-11-04T07:58:44.537Z,1.30
2022-11-04T08:01:16.406Z,1.20
2022-11-04T08:03:44.699Z,0.90
2022-11-04T08:06:15.457Z,1.10
2022-11-04T08:08:46.247Z,1.30
2022-11-04T08:11:17.978Z,0.98
2022-11-04T08:13:47.184Z,1.75
2022-11-04T08:16:18.399Z,1.23
2022-11-04T08:18:48.338Z,1.00
2022-11-04T08:21:19.448Z,1.25
2022-11-04T08:23:48.218Z,1.23
2022-11-04T08:26:18.732Z,1.70
2022-11-04T08:28:47.668Z,2.45
2022-11-04T08:31:21.723Z,1.30
2022-11-04T08:33:49.517Z,1.10
2022-11-04T08:36:22.690Z,1.55
2022-11-04T08:38:50.447Z,1.02
2022-11-04T08:41:24.438Z,1.27
2022-11-04T08:43:56.803Z,1.42
2022-11-04T08:46:26.020Z,1.00
2022-11-04T08:48:54.147Z,1.15
2022-11-04T08:51:24.197Z,0.98
2022-11-04T08:53:52.265Z,1.02
2022-11-04T08:56:21.563Z,1.20
2022-11-04T08:58:50.390Z,1.48
2022-11-04T09:01:21.288Z,1.05
2022-11-04T09:03:56.514Z,1.17
2022-11-04T09:06:27.935Z,1.55
2022-11-04T09:08:58.303Z,1.10
2022-11-04T09:11:26.129Z,1.13
2022-11-04T09:13:59.496Z,1.80
2022-11-04T09:16:29.113Z,1.08
2022-11-04T09:19:01.010Z,1.10
2022-11-04T09:21:29.824Z,1.05
2022-11-04T09:23:58.270Z,0.93
2022-11-04T09:26:29.213Z,1.10
2022-11-04T09:28:58.344Z,1.38
2022-11-04T09:31:32.214Z,1.10
2022-11-04T09:34:01.472Z,1.60
2022-11-04T09:36:32.314Z,1.02
2022-11-04T09:39:00.147Z,1.02
2022-11-04T09:42:06.545Z,1.08
2022-11-04T09:45:14.893Z,1.00
2022-11-04T09:47:35.997Z,1.15
2022-11-04T09:50:11.332Z,1.00
2022-11-04T09:52:45.334Z,1.50
2022-11-04T09:55:22.210Z,0.90
2022-11-04T09:57:55.877Z,1.02
2022-11-04T10:00:33.656Z,1.50
2022-11-04T10:03:21.863Z,1.77
2022-11-04T10:06:14.949Z,1.20
2022-11-04T10:09:10.098Z,1.00
2022-11-04T10:11:53.362Z,1.05
2022-11-04T10:14:41.850Z,1.27
2022-11-04T10:17:35.390Z,1.55
2022-11-04T10:20:21.064Z,1.33
2022-11-04T10:23:03.365Z,1.30
2022-11-04T10:25:46.864Z,1.00
2022-11-04T10:28:26.271Z,1.08
2022-11-04T10:30:55.905Z,0.88
2022-11-04T10:33:30.195Z,1.10
2022-11-04T10:38:34.835Z,0.90
2022-11-04T10:41:07.236Z,1.40
2022-11-04T10:43:38.532Z,1.02
2022-11-04T10:46:27.994Z,1.17
2022-11-04T10:49:06.553Z,1.35
2022-11-04T10:51:34.376Z,0.95
2022-11-04T10:54:11.279Z,1.27
2022-11-04T10:56:44.155Z,1.00
2022-11-04T10:59:24.708Z,1.33
2022-11-04T11:01:54.576Z,1.63
2022-11-04T11:04:41.372Z,1.27
2022-11-04T11:07:11.457Z,1.38
2022-11-04T11:09:54.101Z,1.33
2022-11-04T11:12:50.184Z,1.17
2022-11-04T11:15:30.296Z,1.13
2022-11-04T11:18:02.309Z,1.25
2022-11-04T11:20:32.511Z,1.10
2022-11-04T11:23:04.873Z,0.90
2022-11-04T11:25:36.040Z,1.42
2022-11-04T11:28:07.403Z,1.10
2022-11-04T11:30:57.351Z,1.17
2022-11-04T11:33:28.062Z,0.80
2022-11-04T11:36:00.004Z,1.00
2022-11-04T11:38:29.617Z,0.70
2022-11-04T11:41:24.457Z,0.80
2022-11-04T11:43:56.342Z,0.88
2022-11-04T11:46:26.049Z,1.10
2022-11-04T11:49:00.979Z,0.90
2022-11-04T11:51:32.467Z,1.02
2022-11-04T11:54:16.556Z,1.40
2022-11-04T11:57:12.761Z,0.80
2022-11-04T12:02:46.980Z,1.40
2022-11-04T12:11:16.701Z,0.68
2022-11-04T12:13:53.686Z,0.90
2022-11-04T12:16:30.234Z,0.88
2022-11-04T12:19:14.508Z,1.50
2022-11-04T12:21:48.618Z,0.98
2022-11-04T12:27:08.081Z,0.70
2022-11-04T12:29:54.869Z,1.40
2022-11-04T12:32:31.034Z,0.77
2022-11-04T12:35:12.180Z,0.98
2022-11-04T12:37:52.374Z,0.70
2022-11-04T12:40:30.112Z,0.60
2022-11-04T12:43:09.596Z,1.20
2022-11-04T12:45:49.705Z,0.60
2022-11-04T12:48:34.372Z,0.60
2022-11-04T12:51:09.414Z,1.13
2022-11-04T12:54:12.768Z,0.70
2022-11-04T12:56:41.656Z,1.20
2022-11-04T12:59:39.002Z,0.93
2022-11-04T13:02:18.908Z,1.00
2022-11-04T13:05:00.253Z,0.95
2022-11-04T13:07:33.012Z,0.93
2022-11-04T13:10:07.066Z,1.13
2022-11-04T13:12:40.673Z,1.25
2022-11-04T13:15:20.126Z,0.98
2022-11-04T13:17:54.103Z,0.70
2022-11-04T13:20:30.729Z,0.90
2022-11-04T13:23:04.125Z,0.70
2022-11-04T13:25:35.841Z,1.05
2022-11-04T13:28:04.972Z,1.38
2022-11-04T13:30:40.610Z,1.05
2022-11-04T13:33:22.441Z,1.00
2022-11-04T13:35:58.227Z,0.88
2022-11-04T13:38:32.803Z,0.88
2022-11-04T13:41:21.560Z,1.00
2022-11-04T13:43:54.486Z,0.60
2022-11-04T13:46:30.475Z,0.68
2022-11-04T13:49:03.876Z,0.70
2022-11-04T13:51:37.887Z,0.88
2022-11-04T13:54:07.755Z,0.90
2022-11-04T13:56:38.456Z,0.57
2022-11-04T13:59:23.584Z,0.63
2022-11-04T14:02:26.707Z,0.75
2022-11-04T14:04:57.783Z,0.77
2022-11-04T14:08:13.402Z,0.57
2022-11-04T14:10:46.695Z,0.60
2022-11-04T14:13:46.297Z,1.27
2022-11-04T14:16:44.118Z,1.00
2022-11-04T14:19:57.543Z,0.98
2022-11-04T14:22:35.289Z,0.80
2022-11-04T14:25:19.628Z,0.85
2022-11-04T14:27:49.734Z,0.50
2022-11-04T14:30:35.159Z,0.88
2022-11-04T14:33:07.694Z,0.75
2022-11-04T14:35:38.917Z,0.70
2022-11-04T14:38:30.867Z,0.80
2022-11-04T14:41:24.424Z,0.70
2022-11-04T14:43:56.730Z,0.82
2022-11-04T14:46:27.542Z,0.60
2022-11-04T14:49:01.127Z,0.80
2022-11-04T14:51:34.288Z,0.70
2022-11-04T14:54:09.223Z,0.65
2022-11-04T14:56:37.098Z,0.90
2022-11-04T14:59:06.901Z,0.70
2022-11-04T15:01:41.561Z,0.60
2022-11-04T15:04:19.254Z,0.70
2022-11-04T15:06:55.847Z,0.60
2022-11-04T15:09:27.652Z,0.80
2022-11-04T15:12:23.621Z,0.60
2022-11-04T15:14:52.494Z,0.60
2022-11-04T15:17:23.442Z,0.70
2022-11-04T15:19:54.706Z,0.57
2022-11-04T15:22:25.964Z,0.68
2022-11-04T15:24:56.758Z,0.60
2022-11-04T15:27:29.581Z,0.90
2022-11-04T15:30:00.564Z,0.95
2022-11-04T15:32:28.871Z,0.85
2022-11-04T15:34:59.589Z,0.82
2022-11-04T15:37:36.681Z,1.20
2022-11-04T15:40:08.238Z,1.30
2022-11-04T15:42:43.068Z,1.00
2022-11-04T15:45:38.546Z,0.90
2022-11-04T15:48:26.062Z,0.88
2022-11-04T15:51:06.987Z,0.70
2022-11-04T15:53:47.991Z,1.00
2022-11-04T15:56:19.000Z,0.70
2022-11-04T15:58:47.802Z,0.70
2022-11-04T16:01:16.868Z,0.82
2022-11-04T16:03:51.327Z,1.33
2022-11-04T16:06:19.261Z,0.82
2022-11-04T16:09:02.178Z,0.90
2022-11-04T16:11:31.485Z,0.65
2022-11-04T16:14:23.002Z,0.70
2022-11-04T16:16:52.867Z,0.90
2022-11-04T16:19:26.742Z,0.80
2022-11-04T16:22:00.744Z,0.90
2022-11-04T16:24:32.818Z,1.27
2022-11-04T16:27:28.608Z,0.98
2022-11-04T16:30:13.116Z,0.98
2022-11-04T16:35:28.862Z,1.10
2022-11-04T16:37:57.309Z,1.08
2022-11-04T16:40:34.996Z,1.00
2022-11-04T16:43:04.539Z,1.15
2022-11-04T16:45:37.941Z,0.70
2022-11-04T16:48:06.471Z,0.90
2022-11-04T16:50:34.377Z,0.90
2022-11-04T16:53:03.680Z,1.65
2022-11-04T16:55:34.473Z,1.08
2022-11-04T16:58:05.802Z,1.20
2022-11-04T17:00:34.460Z,1.30
2022-11-04T17:03:05.455Z,1.13
2022-11-04T17:05:36.508Z,1.20
2022-11-04T17:08:06.206Z,1.02
2022-11-04T17:10:37.111Z,1.08
2022-11-04T17:13:06.615Z,0.90
2022-11-04T17:15:39.276Z,1.13
2022-11-04T17:18:16.329Z,0.95
2022-11-04T17:20:45.923Z,1.17
2022-11-04T17:23:15.255Z,1.25
2022-11-04T17:25:43.862Z,0.82
2022-11-04T17:28:14.032Z,0.93
2022-11-04T17:30:42.319Z,1.05
2022-11-04T17:33:13.879Z,1.10
2022-11-04T17:35:42.987Z,1.08
2022-11-04T17:38:14.662Z,0.93
2022-11-04T17:40:56.691Z,1.00
2022-11-04T17:43:43.627Z,0.80
2022-11-04T17:46:26.081Z,0.95
2022-11-04T17:48:57.406Z,1.08
2022-11-04T17:51:28.553Z,0.93
2022-11-04T17:53:56.626Z,1.15
2022-11-04T17:56:25.592Z,1.27
2022-11-04T17:59:04.029Z,1.23
2022-11-04T18:01:36.664Z,1.05
2022-11-04T18:04:07.324Z,0.90
2022-11-04T18:06:39.675Z,1.02
2022-11-04T18:09:11.103Z,1.13
2022-11-04T18:11:56.913Z,1.30
2022-11-04T18:14:28.684Z,1.55
2022-11-04T18:17:02.712Z,1.23
2022-11-04T18:19:31.668Z,1.40
2022-11-04T18:22:08.593Z,1.30
2022-11-04T18:24:36.376Z,1.15
2022-11-04T18:27:04.533Z,1.33
2022-11-04T18:29:33.665Z,1.10
2022-11-04T18:32:04.837Z,1.50
2022-11-04T18:34:33.944Z,1.38
2022-11-04T18:37:08.162Z,1.58
2022-11-04T18:42:05.690Z,1.15
2022-11-04T18:44:34.992Z,1.25
2022-11-04T18:47:03.251Z,1.35
2022-11-04T18:52:12.986Z,1.27
2022-11-04T18:54:43.673Z,1.33
2022-11-04T18:57:12.048Z,0.95
2022-11-04T18:59:41.329Z,1.42
2022-11-04T19:02:16.879Z,1.70
2022-11-04T19:04:44.807Z,1.38
2022-11-04T19:07:19.446Z,1.45
2022-11-04T19:09:48.181Z,1.20
2022-11-04T19:12:37.009Z,1.45
2022-11-04T19:15:07.786Z,1.25
2022-11-04T19:17:39.659Z,1.70
2022-11-04T19:20:12.114Z,1.92
2022-11-04T19:22:41.212Z,1.33
2022-11-04T19:25:12.269Z,3.40
2022-11-04T19:27:40.134Z,1.95
2022-11-04T19:30:10.454Z,1.77
2022-11-04T19:32:38.246Z,1.83
2022-11-04T19:35:06.858Z,3.47
2022-11-04T19:37:34.661Z,1.70
2022-11-04T19:40:04.689Z,1.85
2022-11-04T19:42:51.967Z,2.08
2022-11-04T19:45:22.322Z,2.50
2022-11-04T19:47:50.262Z,2.70
2022-11-04T19:50:19.814Z,1.85
2022-11-04T19:52:47.681Z,1.52
2022-11-04T19:55:15.841Z,1.63
2022-11-04T19:57:49.960Z,1.65
2022-11-04T20:00:23.812Z,1.85
2022-11-04T20:02:52.586Z,1.98
2022-11-04T20:05:26.967Z,1.65
2022-11-04T20:10:24.414Z,1.40
2022-11-04T20:13:09.870Z,1.65
2022-11-04T20:15:42.097Z,1.70
2022-11-04T20:18:10.332Z,1.33
2022-11-04T20:20:38.427Z,1.60
2022-11-04T20:23:07.431Z,1.50
2022-11-04T20:25:35.250Z,1.65
2022-11-04T20:28:03.376Z,1.73
2022-11-04T20:30:36.567Z,1.42
2022-11-04T20:33:07.332Z,1.23
2022-11-04T20:35:35.979Z,0.93
2022-11-04T20:38:03.846Z,1.30
2022-11-04T20:40:33.873Z,1.13
2022-11-04T20:43:04.645Z,1.83
2022-11-04T20:45:32.650Z,1.50
2022-11-04T20:48:00.533Z,1.05
2022-11-04T20:50:32.418Z,1.40
2022-11-04T20:53:00.197Z,1.30
2022-11-04T20:55:29.110Z,1.60
2022-11-04T20:58:02.960Z,1.35
2022-11-04T21:00:35.168Z,2.17
2022-11-04T21:03:02.873Z,1.88
2022-11-04T21:05:32.176Z,1.48
2022-11-04T21:08:00.012Z,1.48
2022-11-04T21:10:27.774Z,1.65
2022-11-04T21:12:55.702Z,1.73
2022-11-04T21:15:41.462Z,2.05
2022-11-04T21:18:10.196Z,2.10
2022-11-04T21:20:41.872Z,2.38
2022-11-04T21:23:10.313Z,2.50
2022-11-04T21:25:42.527Z,2.47
2022-11-04T21:28:13.260Z,2.58
2022-11-04T21:30:45.362Z,2.78
2022-11-04T21:33:14.770Z,2.20
2022-11-04T21:35:44.704Z,2.25
2022-11-04T21:38:15.511Z,1.83
2022-11-04T21:40:47.238Z,2.53
2022-11-04T21:43:15.677Z,2.60
2022-11-04T21:45:43.514Z,2.42
2022-11-04T21:48:11.596Z,2.88
2022-11-04T21:50:39.466Z,2.80
2022-11-04T21:53:08.686Z,2.75
2022-11-04T21:55:39.576Z,3.17
2022-11-04T21:58:07.629Z,2.33
2022-11-04T22:00:38.889Z,2.00
2022-11-04T22:03:06.602Z,2.15
2022-11-04T22:05:34.419Z,2.10
2022-11-04T22:08:17.914Z,2.15
2022-11-04T22:10:47.085Z,2.50
2022-11-04T22:13:17.627Z,1.83
2022-11-04T22:16:02.927Z,1.92
2022-11-04T22:18:32.843Z,1.85
2022-11-04T22:21:06.973Z,1.77
2022-11-04T22:26:08.665Z,2.42
2022-11-04T22:28:36.659Z,4.47
2022-11-04T22:31:09.067Z,2.42
2022-11-04T22:33:40.590Z,2.35
2022-11-04T22:36:09.585Z,2.25
2022-11-04T22:38:39.411Z,2.47
2022-11-04T22:41:09.912Z,2.58
2022-11-04T22:43:37.871Z,2.63
2022-11-04T22:46:09.316Z,2.58
2022-11-04T22:48:37.966Z,3.53
2022-11-04T22:51:08.005Z,2.45
2022-11-04T22:53:36.206Z,2.92
2022-11-04T22:56:05.790Z,3.33
2022-11-04T22:58:35.394Z,2.88
2022-11-04T23:01:07.879Z,2.60
2022-11-04T23:03:35.747Z,2.10
2022-11-04T23:06:05.403Z,3.28
2022-11-04T23:08:35.090Z,3.10
2022-11-04T23:11:31.255Z,2.90
2022-11-04T23:14:30.229Z,2.60
2022-11-04T23:17:19.153Z,2.47
2022-11-04T23:19:46.957Z,2.63
2022-11-04T23:22:32.629Z,3.92
2022-11-04T23:25:10.440Z,2.63
2022-11-04T23:28:02.840Z,3.35
2022-11-04T23:30:34.244Z,2.15
2022-11-04T23:33:06.871Z,2.55
2022-11-04T23:35:57.798Z,2.22
2022-11-04T23:38:26.453Z,2.08
2022-11-04T23:41:22.665Z,2.40
2022-11-04T23:43:50.515Z,2.05
2022-11-04T23:46:45.929Z,2.40
2022-11-04T23:49:31.617Z,2.58
2022-11-04T23:52:19.256Z,2.85
2022-11-04T23:55:04.490Z,2.67
2022-11-04T23:57:50.117Z,4.05
